sensor_id;sensor_type;location;lat;lon;timestamp;P1;durP1;ratioP1;P2;durP2;ratioP2
39308;SDS011;26019;47.510;19.122;2022-12-13T00:05:43;25.75;;;15.65;;
39308;SDS011;26019;47.510;19.122;2022-12-13T00:15:54;24.73;;;14.45;;
39308;SDS011;26019;47.510;19.122;2022-12-13T00:26:06;24.08;;;14.63;;
39308;SDS011;26019;47.510;19.122;2022-12-13T00:36:13;24.73;;;14.27;;
39308;SDS011;26019;47.510;19.122;2022-12-13T00:46:18;25.43;;;15.20;;
39308;SDS011;26019;47.510;19.122;2022-12-13T00:56:24;24.80;;;14.50;;
39308;SDS011;26019;47.510;19.122;2022-12-13T01:16:39;24.63;;;14.95;;
39308;SDS011;26019;47.510;19.122;2022-12-13T01:26:41;26.45;;;14.52;;
39308;SDS011;26019;47.510;19.122;2022-12-13T01:37:11;27.25;;;16.60;;
39308;SDS011;26019;47.510;19.122;2022-12-13T01:47:14;24.98;;;15.27;;
39308;SDS011;26019;47.510;19.122;2022-12-13T01:57:19;28.23;;;17.23;;
39308;SDS011;26019;47.510;19.122;2022-12-13T02:07:24;34.22;;;18.05;;
39308;SDS011;26019;47.510;19.122;2022-12-13T02:48:42;27.30;;;16.40;;
39308;SDS011;26019;47.510;19.122;2022-12-13T03:09:07;29.23;;;16.45;;
39308;SDS011;26019;47.510;19.122;2022-12-13T03:19:33;26.45;;;15.25;;
39308;SDS011;26019;47.510;19.122;2022-12-13T03:29:36;28.60;;;16.95;;
39308;SDS011;26019;47.510;19.122;2022-12-13T03:39:39;25.67;;;15.25;;
39308;SDS011;26019;47.510;19.122;2022-12-13T03:49:46;27.58;;;15.80;;
39308;SDS011;26019;47.510;19.122;2022-12-13T03:59:54;31.05;;;17.33;;
39308;SDS011;26019;47.510;19.122;2022-12-13T04:09:56;27.83;;;15.80;;
39308;SDS011;26019;47.510;19.122;2022-12-13T04:20:00;26.00;;;14.93;;
39308;SDS011;26019;47.510;19.122;2022-12-13T04:50:11;28.60;;;16.27;;
39308;SDS011;26019;47.510;19.122;2022-12-13T05:00:15;29.27;;;16.10;;
39308;SDS011;26019;47.510;19.122;2022-12-13T05:10:18;26.92;;;15.68;;
39308;SDS011;26019;47.510;19.122;2022-12-13T05:20:36;27.83;;;17.33;;
39308;SDS011;26019;47.510;19.122;2022-12-13T05:30:42;30.85;;;17.55;;
39308;SDS011;26019;47.510;19.122;2022-12-13T05:40:46;26.73;;;16.52;;
39308;SDS011;26019;47.510;19.122;2022-12-13T05:50:47;33.95;;;16.88;;
39308;SDS011;26019;47.510;19.122;2022-12-13T06:00:51;34.63;;;18.10;;
39308;SDS011;26019;47.510;19.122;2022-12-13T06:10:58;31.50;;;16.80;;
39308;SDS011;26019;47.510;19.122;2022-12-13T06:21:12;30.15;;;16.40;;
39308;SDS011;26019;47.510;19.122;2022-12-13T06:31:13;31.48;;;17.35;;
39308;SDS011;26019;47.510;19.122;2022-12-13T06:41:16;33.65;;;17.40;;
39308;SDS011;26019;47.510;19.122;2022-12-13T06:51:18;34.65;;;17.30;;
39308;SDS011;26019;47.510;19.122;2022-12-13T07:01:24;41.97;;;20.30;;
39308;SDS011;26019;47.510;19.122;2022-12-13T07:11:37;33.38;;;17.35;;
39308;SDS011;26019;47.510;19.122;2022-12-13T07:21:39;37.25;;;19.83;;
39308;SDS011;26019;47.510;19.122;2022-12-13T07:41:48;31.08;;;16.67;;
39308;SDS011;26019;47.510;19.122;2022-12-13T07:51:54;29.35;;;15.10;;
39308;SDS011;26019;47.510;19.122;2022-12-13T08:01:56;30.83;;;15.77;;
39308;SDS011;26019;47.510;19.122;2022-12-13T08:12:02;24.90;;;13.73;;
39308;SDS011;26019;47.510;19.122;2022-12-13T08:22:04;21.42;;;13.55;;
39308;SDS011;26019;47.510;19.122;2022-12-13T08:32:14;21.08;;;12.75;;
39308;SDS011;26019;47.510;19.122;2022-12-13T08:42:17;19.85;;;12.20;;
39308;SDS011;26019;47.510;19.122;2022-12-13T09:02:31;24.05;;;13.25;;
39308;SDS011;26019;47.510;19.122;2022-12-13T09:12:42;16.80;;;10.63;;
39308;SDS011;26019;47.510;19.122;2022-12-13T09:22:46;12.70;;;8.23;;
39308;SDS011;26019;47.510;19.122;2022-12-13T09:32:48;14.07;;;9.40;;
39308;SDS011;26019;47.510;19.122;2022-12-13T09:42:53;14.00;;;8.83;;
39308;SDS011;26019;47.510;19.122;2022-12-13T09:53:21;8.85;;;7.03;;
39308;SDS011;26019;47.510;19.122;2022-12-13T10:03:25;10.65;;;6.85;;
39308;SDS011;26019;47.510;19.122;2022-12-13T10:24:15;11.13;;;7.72;;
39308;SDS011;26019;47.510;19.122;2022-12-13T10:34:34;12.05;;;7.65;;
39308;SDS011;26019;47.510;19.122;2022-12-13T10:44:39;12.60;;;7.45;;
39308;SDS011;26019;47.510;19.122;2022-12-13T10:54:42;17.33;;;7.68;;
39308;SDS011;26019;47.510;19.122;2022-12-13T11:04:55;12.90;;;7.60;;
39308;SDS011;26019;47.510;19.122;2022-12-13T11:15:32;14.10;;;8.00;;
39308;SDS011;26019;47.510;19.122;2022-12-13T11:25:41;12.95;;;7.78;;
39308;SDS011;26019;47.510;19.122;2022-12-13T11:46:13;10.30;;;7.38;;
39308;SDS011;26019;47.510;19.122;2022-12-13T12:06:37;13.65;;;8.18;;
39308;SDS011;26019;47.510;19.122;2022-12-13T12:16:57;15.35;;;8.82;;
39308;SDS011;26019;47.510;19.122;2022-12-13T13:09:11;13.55;;;8.13;;
39308;SDS011;26019;47.510;19.122;2022-12-13T13:29:36;12.13;;;7.88;;
39308;SDS011;26019;47.510;19.122;2022-12-13T13:39:56;13.30;;;8.50;;
39308;SDS011;26019;47.510;19.122;2022-12-13T14:00:26;15.32;;;8.77;;
39308;SDS011;26019;47.510;19.122;2022-12-13T14:32:00;13.55;;;9.02;;
39308;SDS011;26019;47.510;19.122;2022-12-13T14:52:34;22.00;;;11.65;;
39308;SDS011;26019;47.510;19.122;2022-12-13T15:02:48;29.50;;;15.85;;
39308;SDS011;26019;47.510;19.122;2022-12-13T15:12:52;37.28;;;16.00;;
39308;SDS011;26019;47.510;19.122;2022-12-13T15:22:56;36.47;;;15.63;;
39308;SDS011;26019;47.510;19.122;2022-12-13T15:33:14;42.10;;;17.20;;
39308;SDS011;26019;47.510;19.122;2022-12-13T15:43:28;27.75;;;12.88;;
39308;SDS011;26019;47.510;19.122;2022-12-13T15:53:59;26.42;;;13.68;;
39308;SDS011;26019;47.510;19.122;2022-12-13T16:04:12;22.05;;;12.18;;
39308;SDS011;26019;47.510;19.122;2022-12-13T16:14:38;30.30;;;15.05;;
39308;SDS011;26019;47.510;19.122;2022-12-13T16:24:59;40.20;;;17.45;;
39308;SDS011;26019;47.510;19.122;2022-12-13T16:35:01;31.27;;;15.60;;
39308;SDS011;26019;47.510;19.122;2022-12-13T16:45:03;33.45;;;17.10;;
39308;SDS011;26019;47.510;19.122;2022-12-13T16:55:26;33.58;;;16.08;;
39308;SDS011;26019;47.510;19.122;2022-12-13T17:05:29;34.43;;;17.03;;
39308;SDS011;26019;47.510;19.122;2022-12-13T17:15:35;48.45;;;29.02;;
39308;SDS011;26019;47.510;19.122;2022-12-13T17:25:41;32.95;;;18.15;;
39308;SDS011;26019;47.510;19.122;2022-12-13T17:35:45;34.67;;;19.07;;
39308;SDS011;26019;47.510;19.122;2022-12-13T17:45:59;38.03;;;18.83;;
39308;SDS011;26019;47.510;19.122;2022-12-13T17:56:04;43.92;;;21.83;;
39308;SDS011;26019;47.510;19.122;2022-12-13T18:06:12;42.22;;;20.25;;
39308;SDS011;26019;47.510;19.122;2022-12-13T18:16:15;37.80;;;20.52;;
39308;SDS011;26019;47.510;19.122;2022-12-13T18:36:25;51.13;;;21.10;;
39308;SDS011;26019;47.510;19.122;2022-12-13T18:46:30;47.05;;;23.33;;
39308;SDS011;26019;47.510;19.122;2022-12-13T18:56:35;52.13;;;24.35;;
39308;SDS011;26019;47.510;19.122;2022-12-13T19:16:53;55.40;;;28.90;;
39308;SDS011;26019;47.510;19.122;2022-12-13T19:37:03;60.22;;;29.92;;
39308;SDS011;26019;47.510;19.122;2022-12-13T19:47:08;64.82;;;30.70;;
39308;SDS011;26019;47.510;19.122;2022-12-13T19:57:13;67.05;;;31.85;;
39308;SDS011;26019;47.510;19.122;2022-12-13T20:07:16;73.03;;;34.50;;
39308;SDS011;26019;47.510;19.122;2022-12-13T20:17:20;79.95;;;40.08;;
39308;SDS011;26019;47.510;19.122;2022-12-13T20:27:24;84.80;;;40.97;;
39308;SDS011;26019;47.510;19.122;2022-12-13T20:37:32;93.18;;;46.20;;
39308;SDS011;26019;47.510;19.122;2022-12-13T20:47:36;94.78;;;43.95;;
39308;SDS011;26019;47.510;19.122;2022-12-13T20:57:39;84.18;;;42.10;;
39308;SDS011;26019;47.510;19.122;2022-12-13T21:07:42;86.15;;;44.22;;
39308;SDS011;26019;47.510;19.122;2022-12-13T21:18:06;77.30;;;38.25;;
39308;SDS011;26019;47.510;19.122;2022-12-13T21:28:09;77.50;;;37.67;;
39308;SDS011;26019;47.510;19.122;2022-12-13T21:38:11;88.82;;;45.40;;
39308;SDS011;26019;47.510;19.122;2022-12-13T21:48:13;88.07;;;43.08;;
39308;SDS011;26019;47.510;19.122;2022-12-13T21:58:15;99.43;;;46.97;;
39308;SDS011;26019;47.510;19.122;2022-12-13T22:08:42;97.97;;;48.10;;
39308;SDS011;26019;47.510;19.122;2022-12-13T22:18:44;107.35;;;50.88;;
39308;SDS011;26019;47.510;19.122;2022-12-13T22:28:48;110.55;;;54.08;;
39308;SDS011;26019;47.510;19.122;2022-12-13T22:38:53;105.72;;;48.80;;
39308;SDS011;26019;47.510;19.122;2022-12-13T22:48:55;107.30;;;51.05;;
39308;SDS011;26019;47.510;19.122;2022-12-13T22:58:57;96.32;;;45.35;;
39308;SDS011;26019;47.510;19.122;2022-12-13T23:09:06;79.90;;;42.70;;
39308;SDS011;26019;47.510;19.122;2022-12-13T23:19:17;96.85;;;44.42;;
39308;SDS011;26019;47.510;19.122;2022-12-13T23:29:39;89.93;;;45.45;;
39308;SDS011;26019;47.510;19.122;2022-12-13T23:59:54;94.78;;;46.25;;
